Time;durP1;ratioP1;P1;durP2;ratioP2;P2;SDS_P1;SDS_P2;PMS_P1;PMS_P2;Temp;Humidity;BMP_temperature;BMP_pressure;BME280_temperature;BME280_humidity;BME280_pressure;Samples;Min_cycle;Max_cycle;Signal;HPM_P1;HPM_P2
2024/02/14 00:00:52;;;;;;;3.10;1.02;;;;;;;16.14;46.20;101279.50;4935199;29;20024;-61
2024/02/14 00:03:18;;;;;;;1.13;0.60;;;;;;;16.16;46.47;101274.78;4936465;29;20118;-61
2024/02/14 00:05:43;;;;;;;3.10;0.75;;;;;;;16.20;46.41;101283.44;4936546;29;20056;-61
2024/02/14 00:08:09;;;;;;;0.77;0.70;;;;;;;16.24;46.41;101284.84;4919213;29;20496;-62
2024/02/14 00:10:34;;;;;;;2.75;0.68;;;;;;;16.22;46.98;101281.44;4935110;29;20028;-61
2024/02/14 00:13:00;;;;;;;1.20;0.60;;;;;;;16.24;46.78;101284.84;4934984;29;20047;-61
2024/02/14 00:15:25;;;;;;;0.88;0.80;;;;;;;16.24;46.20;101279.44;4935192;29;20086;-61
2024/02/14 00:17:51;;;;;;;3.25;1.13;;;;;;;16.22;46.62;101276.88;4950713;29;20032;-62
2024/02/14 00:20:16;;;;;;;1.60;0.75;;;;;;;16.16;46.45;101261.28;4915987;29;20536;-61
2024/02/14 00:22:41;;;;;;;0.95;0.70;;;;;;;16.25;47.43;101275.72;4915893;29;20047;-63
2024/02/14 00:25:07;;;;;;;0.65;0.63;;;;;;;16.29;47.45;101279.81;4916891;29;20051;-61
2024/02/14 00:27:33;;;;;;;3.70;0.68;;;;;;;16.27;46.63;101269.16;4899919;29;20504;-62
2024/02/14 00:29:58;;;;;;;1.20;0.70;;;;;;;16.28;47.35;101264.59;4915770;29;20448;-61
2024/02/14 00:32:24;;;;;;;1.73;0.70;;;;;;;16.27;47.39;101260.22;4915729;29;20028;-61
2024/02/14 00:34:49;;;;;;;3.75;0.73;;;;;;;16.27;47.21;101262.91;4924602;29;20043;-62
2024/02/14 00:37:15;;;;;;;1.42;0.63;;;;;;;16.32;46.88;101266.00;4934582;29;20039;-61
2024/02/14 00:39:40;;;;;;;2.55;1.00;;;;;;;16.32;47.97;101266.00;4918844;29;20034;-61
2024/02/14 00:42:06;;;;;;;0.82;0.77;;;;;;;16.30;47.25;101240.97;4934688;29;20110;-61
2024/02/14 00:44:31;;;;;;;1.38;0.65;;;;;;;16.34;47.00;101253.16;4950403;29;20070;-62
2024/02/14 00:47:02;;;;;;;2.22;0.60;;;;;;;16.38;47.33;101249.16;4935788;29;20039;-61
2024/02/14 00:49:27;;;;;;;1.63;0.68;;;;;;;16.38;46.75;101253.72;4935163;29;20060;-61
2024/02/14 00:51:52;;;;;;;0.73;0.50;;;;;;;16.37;47.23;101254.69;4934478;29;20220;-62
2024/02/14 00:54:18;;;;;;;0.80;0.80;;;;;;;16.39;47.08;101245.44;4934625;29;20506;-61
2024/02/14 00:56:43;;;;;;;3.00;0.80;;;;;;;16.41;47.33;101248.84;4918653;29;20456;-61
2024/02/14 00:59:08;;;;;;;1.00;0.60;;;;;;;16.40;47.64;101244.44;4934367;29;20027;-62
2024/02/14 01:01:34;;;;;;;4.15;0.70;;;;;;;16.42;47.37;101239.72;4934707;29;20043;-62
2024/02/14 01:03:59;;;;;;;1.15;0.60;;;;;;;16.44;47.54;101245.84;4950074;29;20039;-62
2024/02/14 01:06:24;;;;;;;1.75;0.77;;;;;;;16.42;46.88;101231.59;4950275;29;20462;-61
2024/02/14 01:08:50;;;;;;;2.58;0.82;;;;;;;16.46;47.36;101229.44;4934403;29;20032;-61
2024/02/14 01:11:15;;;;;;;1.05;0.95;;;;;;;16.44;46.93;101239.56;4934465;29;20518;-62
2024/02/14 01:13:41;;;;;;;4.20;0.98;;;;;;;16.40;47.39;101236.31;4950249;29;20159;-62
2024/02/14 01:16:07;;;;;;;1.10;0.70;;;;;;;16.39;47.56;101242.72;4935701;29;20078;-62
2024/02/14 01:18:33;;;;;;;1.75;0.68;;;;;;;16.44;47.92;101247.69;4935512;29;20123;-62
2024/02/14 01:21:00;;;;;;;1.00;0.93;;;;;;;16.41;46.95;101243.44;4934677;29;20122;-62
2024/02/14 01:23:25;;;;;;;2.25;0.50;;;;;;;16.42;47.23;101245.13;4935476;29;20067;-62
2024/02/14 01:25:51;;;;;;;3.55;0.90;;;;;;;16.43;47.63;101236.00;4934475;29;20114;-62
2024/02/14 01:28:17;;;;;;;2.65;0.75;;;;;;;16.43;47.08;101241.41;4934388;29;20487;-62
2024/02/14 01:30:42;;;;;;;3.70;0.82;;;;;;;16.39;47.70;101229.19;4934276;29;20403;-61
2024/02/14 01:33:08;;;;;;;0.80;0.77;;;;;;;16.42;47.94;101245.13;4933840;29;20052;-61
2024/02/14 01:35:33;;;;;;;0.70;0.43;;;;;;;16.44;46.79;101242.28;4934033;29;20048;-61
2024/02/14 01:37:58;;;;;;;2.38;1.00;;;;;;;16.44;48.09;101235.00;4934231;29;20042;-61
2024/02/14 01:40:24;;;;;;;2.13;1.00;;;;;;;16.47;47.37;101242.78;4935340;29;20118;-61
2024/02/14 01:42:49;;;;;;;1.05;0.73;;;;;;;16.49;47.30;101251.63;4934170;29;20087;-62
2024/02/14 01:45:15;;;;;;;3.13;0.95;;;;;;;16.50;46.98;101249.75;4935250;29;20036;-61
2024/02/14 01:47:41;;;;;;;1.38;0.73;;;;;;;16.53;47.31;101253.00;4935148;29;20043;-62
2024/02/14 01:50:09;;;;;;;3.17;0.40;;;;;;;16.55;47.50;101261.00;4918134;29;20032;-61
2024/02/14 01:52:35;;;;;;;2.20;0.75;;;;;;;16.54;48.33;101254.72;4935077;29;20032;-61
2024/02/14 01:55:02;;;;;;;0.40;0.40;;;;;;;16.60;47.23;101270.31;4934163;29;20465;-61
2024/02/14 01:57:27;;;;;;;0.95;0.80;;;;;;;16.58;47.81;101272.31;4934019;29;20099;-61
2024/02/14 01:59:54;;;;;;;1.67;1.00;;;;;;;16.55;47.56;101256.44;4933968;29;20500;-62
2024/02/14 02:02:20;;;;;;;1.52;1.00;;;;;;;16.51;48.59;101249.59;4936512;29;20078;-61
2024/02/14 02:04:46;;;;;;;1.80;0.70;;;;;;;16.56;47.42;101255.41;4938403;29;20036;-61
2024/02/14 02:07:11;;;;;;;3.15;1.02;;;;;;;16.59;47.85;101256.94;4937283;29;20063;-61
2024/02/14 02:09:37;;;;;;;3.13;1.38;;;;;;;16.61;47.05;101260.38;4937343;29;20051;-61
2024/02/14 02:12:07;;;;;;;0.52;0.50;;;;;;;16.64;48.78;101254.59;4937107;29;20032;-62
2024/02/14 02:14:33;;;;;;;0.68;0.43;;;;;;;16.64;47.99;101258.16;4938452;29;20036;-61
2024/02/14 02:16:58;;;;;;;4.45;0.73;;;;;;;16.65;47.79;101250.91;4939574;29;20046;-61
2024/02/14 02:19:24;;;;;;;2.90;1.25;;;;;;;16.65;48.29;101259.88;4939696;29;20031;-61
2024/02/14 02:21:49;;;;;;;3.33;0.70;;;;;;;16.66;47.11;101261.59;4939881;29;20385;-61
2024/02/14 02:24:15;;;;;;;3.25;0.80;;;;;;;16.66;48.35;101264.28;4936954;29;20415;-61
2024/02/14 02:26:40;;;;;;;1.63;0.70;;;;;;;16.65;46.99;101262.59;4938175;29;20053;-61
2024/02/14 02:29:06;;;;;;;3.28;1.10;;;;;;;16.63;47.66;101264.59;4938238;29;20122;-62
2024/02/14 02:31:32;;;;;;;1.88;1.02;;;;;;;16.64;47.61;101260.88;4920978;29;20044;-61
2024/02/14 02:33:57;;;;;;;4.18;1.15;;;;;;;16.64;48.26;101249.19;4936613;29;20039;-62
2024/02/14 02:36:24;;;;;;;3.78;1.00;;;;;;;16.64;48.93;101263.56;4936724;29;20032;-61
2024/02/14 02:38:49;;;;;;;1.48;0.85;;;;;;;16.68;47.29;101264.97;4936729;29;20047;-61
2024/02/14 02:41:15;;;;;;;4.00;1.23;;;;;;;16.65;48.26;101262.59;4937833;29;20534;-62
2024/02/14 02:43:40;;;;;;;2.17;0.82;;;;;;;16.67;47.49;101265.13;4936504;29;20075;-61
2024/02/14 02:46:08;;;;;;;1.50;0.98;;;;;;;16.66;48.05;101267.00;4936439;29;20052;-61
2024/02/14 02:48:33;;;;;;;0.65;0.60;;;;;;;16.67;48.13;101271.38;4936533;29;20038;-62
2024/02/14 02:50:59;;;;;;;2.25;1.00;;;;;;;16.66;48.36;101269.69;4936208;29;20114;-61
2024/02/14 02:53:24;;;;;;;2.17;1.17;;;;;;;16.67;47.91;101275.94;4920546;29;20040;-61
2024/02/14 02:55:51;;;;;;;0.60;0.60;;;;;;;16.65;48.32;101264.44;4937707;29;20110;-61
2024/02/14 02:58:16;;;;;;;1.05;0.95;;;;;;;16.62;48.29;101271.00;4937722;29;20039;-61
2024/02/14 03:00:42;;;;;;;2.40;1.35;;;;;;;16.63;48.07;101275.41;4936387;29;20039;-61
2024/02/14 03:03:08;;;;;;;1.52;1.08;;;;;;;16.61;48.48;101260.38;4937350;29;20039;-62
2024/02/14 03:05:34;;;;;;;2.10;1.40;;;;;;;16.58;48.64;101261.50;4936299;29;20039;-62
2024/02/14 03:08:00;;;;;;;1.23;1.13;;;;;;;16.59;47.85;101263.22;4952333;29;20083;-62
2024/02/14 03:10:25;;;;;;;1.20;1.10;;;;;;;16.61;48.84;101265.78;4936352;29;20040;-63
2024/02/14 03:12:51;;;;;;;1.83;0.95;;;;;;;16.61;48.38;101266.59;4934928;29;20523;-62
2024/02/14 03:15:18;;;;;;;1.58;1.00;;;;;;;16.63;49.62;101270.00;4937273;29;20028;-61
2024/02/14 03:17:44;;;;;;;1.38;0.90;;;;;;;16.62;48.73;101267.44;4918688;29;20036;-61
2024/02/14 03:20:12;;;;;;;2.42;1.73;;;;;;;16.66;49.08;101253.47;4916973;29;20043;-61
2024/02/14 03:22:38;;;;;;;3.22;1.30;;;;;;;16.67;48.87;101255.16;4932635;29;20037;-61
2024/02/14 03:25:03;;;;;;;1.33;1.00;;;;;;;16.67;49.25;101257.00;4916776;29;20512;-61
2024/02/14 03:27:31;;;;;;;1.23;0.90;;;;;;;16.59;49.10;101244.28;4918057;29;20040;-61
2024/02/14 03:29:58;;;;;;;1.75;1.13;;;;;;;16.62;48.56;101257.47;4925970;29;20057;-62
2024/02/14 03:32:23;;;;;;;1.65;0.90;;;;;;;16.65;49.43;101250.91;4937138;29;20032;-61
2024/02/14 03:34:49;;;;;;;2.30;0.98;;;;;;;16.65;49.27;101261.72;4919615;29;20102;-61
2024/02/14 03:37:14;;;;;;;1.90;1.13;;;;;;;16.67;48.78;101248.88;4935827;29;20031;-61
2024/02/14 03:39:40;;;;;;;4.68;1.00;;;;;;;16.64;49.32;101255.47;4937279;29;20150;-61
2024/02/14 03:42:07;;;;;;;2.35;1.30;;;;;;;16.65;49.08;101251.75;4936835;29;20507;-61
2024/02/14 03:44:33;;;;;;;3.70;1.20;;;;;;;16.63;49.39;101253.78;4936174;29;20128;-61
2024/02/14 03:46:59;;;;;;;3.22;1.13;;;;;;;16.65;49.51;101268.00;4919451;29;20119;-61
2024/02/14 03:49:25;;;;;;;2.88;0.90;;;;;;;16.66;49.07;101269.69;4935391;29;20032;-61
2024/02/14 03:51:54;;;;;;;2.00;1.00;;;;;;;16.66;50.06;101269.69;4935355;29;20042;-61
2024/02/14 03:54:19;;;;;;;4.60;1.20;;;;;;;16.64;49.27;101254.59;4935340;29;20057;-62
2024/02/14 03:56:45;;;;;;;10.93;1.30;;;;;;;16.68;48.94;101262.28;4936462;29;20546;-63
2024/02/14 03:59:11;;;;;;;1.27;1.10;;;;;;;16.67;48.88;101263.25;4934913;29;20491;-62
2024/02/14 04:01:36;;;;;;;3.40;1.23;;;;;;;16.70;48.94;101276.47;4934996;29;20103;-62
2024/02/14 04:04:01;;;;;;;3.13;1.20;;;;;;;16.73;49.08;101283.44;4936189;29;20027;-62
2024/02/14 04:06:27;;;;;;;1.23;1.13;;;;;;;16.69;49.25;101276.66;4936188;29;20026;-61
2024/02/14 04:08:52;;;;;;;2.08;1.48;;;;;;;16.72;50.12;101292.56;4936370;29;20075;-61
2024/02/14 04:11:18;;;;;;;3.33;1.20;;;;;;;16.72;49.58;101293.38;4936206;29;20058;-61
2024/02/14 04:13:43;;;;;;;2.10;1.75;;;;;;;16.71;49.18;101291.72;4934941;28;20020;-61
2024/02/14 04:16:08;;;;;;;6.07;1.38;;;;;;;16.75;48.77;101300.38;4936013;29;20028;-61
2024/02/14 04:18:34;;;;;;;3.50;1.40;;;;;;;16.71;49.34;101297.13;4934951;29;20493;-61
2024/02/14 04:20:59;;;;;;;1.58;1.33;;;;;;;16.73;49.59;101303.22;4934906;29;20483;-61
2024/02/14 04:23:25;;;;;;;1.88;1.30;;;;;;;16.72;49.01;101306.91;4934651;29;20051;-61
2024/02/14 04:25:50;;;;;;;2.45;1.40;;;;;;;16.70;49.51;101302.69;4935957;29;20024;-62
2024/02/14 04:28:16;;;;;;;2.92;1.10;;;;;;;16.69;49.81;101306.41;4934884;29;20020;-62
2024/02/14 04:30:41;;;;;;;5.22;1.40;;;;;;;16.65;49.86;101292.34;4934708;29;20070;-61
2024/02/14 04:33:08;;;;;;;3.42;1.38;;;;;;;16.66;49.66;101309.44;4934602;29;20132;-62
2024/02/14 04:35:33;;;;;;;2.05;1.58;;;;;;;16.65;49.54;101305.88;4934672;28;20019;-61
2024/02/14 04:37:59;;;;;;;3.00;1.33;;;;;;;16.63;50.33;101302.47;4918717;29;20035;-61
2024/02/14 04:40:24;;;;;;;1.40;1.30;;;;;;;16.62;49.48;101305.31;4934880;29;20028;-61
2024/02/14 04:42:50;;;;;;;1.40;1.00;;;;;;;16.61;49.61;101304.47;4934755;29;20389;-62
2024/02/14 04:45:15;;;;;;;5.40;1.35;;;;;;;16.62;49.46;101311.59;4934313;28;20167;-62
2024/02/14 04:47:41;;;;;;;1.67;1.30;;;;;;;16.59;50.00;101308.34;4935967;29;20024;-61
2024/02/14 04:50:06;;;;;;;3.33;1.27;;;;;;;16.57;49.93;101313.91;4934803;29;20028;-61
2024/02/14 04:52:32;;;;;;;1.92;1.20;;;;;;;16.60;49.66;101323.56;4934504;29;20063;-61
2024/02/14 04:54:57;;;;;;;1.95;1.17;;;;;;;16.55;49.95;101321.34;4934582;29;20020;-61
2024/02/14 04:57:23;;;;;;;2.22;1.13;;;;;;;16.57;51.03;101324.72;4934444;29;20476;-61
2024/02/14 04:59:48;;;;;;;4.45;1.65;;;;;;;16.56;50.07;101322.16;4918632;29;20032;-61
2024/02/14 05:02:14;;;;;;;2.60;1.52;;;;;;;16.53;50.71;101320.63;4934399;29;20035;-61
2024/02/14 05:04:39;;;;;;;3.38;1.40;;;;;;;16.54;50.33;101324.19;4918425;29;20024;-61
2024/02/14 05:07:05;;;;;;;3.42;1.77;;;;;;;16.53;50.11;101317.91;4935476;29;20380;-61
2024/02/14 05:09:30;;;;;;;1.65;1.50;;;;;;;16.53;51.42;101312.50;4934426;29;20032;-61
2024/02/14 05:11:56;;;;;;;6.35;1.33;;;;;;;16.53;50.27;101317.03;4934315;28;20028;-61
2024/02/14 05:14:21;;;;;;;5.95;1.08;;;;;;;16.51;50.93;101317.19;4918569;29;20111;-61
2024/02/14 05:16:47;;;;;;;6.10;1.55;;;;;;;16.50;51.32;101314.66;4935785;29;20040;-61
2024/02/14 05:19:12;;;;;;;2.47;1.48;;;;;;;16.54;51.00;101319.63;4934514;29;20154;-61
2024/02/14 05:21:38;;;;;;;3.65;1.35;;;;;;;16.56;50.62;101316.75;4934098;29;20174;-61
2024/02/14 05:24:04;;;;;;;2.45;1.38;;;;;;;16.58;50.56;101310.19;4935581;29;20114;-61
2024/02/14 05:26:29;;;;;;;3.28;1.42;;;;;;;16.61;50.94;101315.28;4934199;29;20520;-62
2024/02/14 05:28:54;;;;;;;2.38;1.42;;;;;;;16.62;50.44;101317.00;4950169;29;20055;-61
2024/02/14 05:31:20;;;;;;;2.30;1.42;;;;;;;16.66;49.88;101323.81;4934076;29;20067;-61
2024/02/14 05:33:45;;;;;;;1.98;1.25;;;;;;;16.71;50.96;101321.47;4918270;29;20405;-62
2024/02/14 05:36:10;;;;;;;3.85;1.35;;;;;;;16.69;50.52;101319.94;4934857;29;20039;-61
2024/02/14 05:38:36;;;;;;;2.25;1.33;;;;;;;16.75;50.34;101322.84;4937865;29;20377;-61
2024/02/14 05:41:01;;;;;;;2.10;1.25;;;;;;;16.75;50.58;101322.84;4937638;28;20039;-61
2024/02/14 05:43:26;;;;;;;3.63;1.38;;;;;;;16.78;50.73;101322.53;4937918;29;20111;-61
2024/02/14 05:45:52;;;;;;;4.03;3.08;;;;;;;16.80;51.01;101320.53;4938020;29;20042;-62
2024/02/14 05:48:18;;;;;;;1.30;1.10;;;;;;;16.81;51.22;101319.50;4921852;29;20032;-62
2024/02/14 05:50:44;;;;;;;2.35;1.70;;;;;;;16.82;50.57;101328.47;4921980;29;20032;-62
2024/02/14 05:53:09;;;;;;;1.70;1.42;;;;;;;16.85;51.01;101322.75;4939081;29;20436;-62
2024/02/14 05:55:35;;;;;;;3.92;1.63;;;;;;;16.85;50.15;101310.09;4937780;29;20048;-62
2024/02/14 05:58:00;;;;;;;2.60;1.50;;;;;;;16.85;50.76;101312.78;4937592;29;20040;-62
2024/02/14 06:00:25;;;;;;;3.22;1.10;;;;;;;16.85;51.17;101318.22;4921351;29;20047;-62
2024/02/14 06:02:51;;;;;;;1.75;1.40;;;;;;;16.84;51.23;101318.34;4937395;29;20110;-61
2024/02/14 06:05:16;;;;;;;5.22;1.35;;;;;;;16.85;50.57;101320.06;4937327;29;20043;-62
2024/02/14 06:07:42;;;;;;;2.38;1.42;;;;;;;16.85;50.83;101323.63;4938529;29;20032;-62
2024/02/14 06:10:08;;;;;;;2.13;1.30;;;;;;;16.80;50.94;101309.72;4937244;29;20032;-61
2024/02/14 06:12:34;;;;;;;1.88;1.55;;;;;;;16.79;50.67;101313.41;4938566;29;20110;-62
2024/02/14 06:15:00;;;;;;;1.90;1.70;;;;;;;16.80;50.37;101320.53;4929650;29;20063;-62
2024/02/14 06:17:26;;;;;;;3.92;1.85;;;;;;;16.76;50.71;101324.56;4929405;29;20048;-61
2024/02/14 06:19:52;;;;;;;2.13;1.80;;;;;;;16.80;51.26;101325.94;4926453;29;20024;-61
2024/02/14 06:22:17;;;;;;;3.78;1.80;;;;;;;16.82;51.03;101329.34;4917835;29;20040;-61
2024/02/14 06:24:43;;;;;;;4.85;1.50;;;;;;;16.81;51.27;101324.91;4919087;29;20040;-61
2024/02/14 06:27:08;;;;;;;3.97;1.77;;;;;;;16.81;50.83;101333.03;4917896;29;20055;-61
2024/02/14 06:29:33;;;;;;;6.25;2.03;;;;;;;16.82;50.82;101339.31;4918237;29;20032;-61
2024/02/14 06:31:58;;;;;;;2.78;1.38;;;;;;;16.85;50.33;101339.84;4919170;29;20480;-62
2024/02/14 06:34:25;;;;;;;2.65;1.55;;;;;;;16.82;51.02;101334.75;4917885;29;20404;-62
2024/02/14 06:36:51;;;;;;;4.03;1.73;;;;;;;16.85;50.78;101344.41;4919142;29;20055;-61
2024/02/14 06:39:16;;;;;;;1.85;1.70;;;;;;;16.85;50.90;101349.81;4920468;29;20035;-64
2024/02/14 06:41:43;;;;;;;3.97;1.75;;;;;;;16.82;51.40;101348.28;4923443;29;20028;-61
2024/02/14 06:44:09;;;;;;;6.80;1.70;;;;;;;16.86;51.19;101359.66;4920190;29;20100;-61
2024/02/14 06:46:37;;;;;;;2.72;1.63;;;;;;;16.85;51.00;101361.50;4919501;29;20032;-62
2024/02/14 06:49:02;;;;;;;8.63;1.98;;;;;;;16.89;51.24;101362.88;4918831;29;20036;-61
2024/02/14 06:51:28;;;;;;;2.63;1.95;;;;;;;16.92;51.16;101361.69;4917607;29;20101;-62
2024/02/14 06:53:53;;;;;;;7.13;2.05;;;;;;;16.89;51.52;101357.47;4917553;29;20044;-62
2024/02/14 06:56:18;;;;;;;3.65;1.50;;;;;;;16.85;51.43;101356.09;4917382;29;20032;-62
2024/02/14 06:58:44;;;;;;;4.80;2.05;;;;;;;16.85;51.11;101361.50;4918620;29;20115;-61
2024/02/14 07:01:12;;;;;;;5.68;2.00;;;;;;;16.86;51.15;101357.75;4901679;29;20500;-61
2024/02/14 07:03:37;;;;;;;3.30;1.58;;;;;;;16.89;51.24;101359.31;4919348;29;20055;-61
2024/02/14 07:06:02;;;;;;;3.10;1.85;;;;;;;16.92;51.38;101360.88;4936360;29;20111;-61
2024/02/14 07:08:28;;;;;;;2.60;2.13;;;;;;;16.89;51.65;101362.88;4920404;29;20404;-61
2024/02/14 07:10:54;;;;;;;4.60;1.83;;;;;;;16.88;51.62;101372.00;4935984;29;20035;-61
2024/02/14 07:13:20;;;;;;;5.82;2.65;;;;;;;16.87;51.10;101370.31;4935917;29;20504;-63
2024/02/14 07:15:45;;;;;;;2.83;1.60;;;;;;;16.94;50.71;101380.50;4935987;29;20032;-62
2024/02/14 07:18:11;;;;;;;3.53;1.58;;;;;;;16.97;51.16;101374.78;4937266;29;20471;-61
2024/02/14 07:20:36;;;;;;;3.53;1.35;;;;;;;16.95;51.39;101371.34;4936037;29;20567;-61
2024/02/14 07:23:03;;;;;;;2.45;1.85;;;;;;;17.00;51.48;101371.75;4935823;29;20118;-61
2024/02/14 07:25:28;;;;;;;5.13;1.55;;;;;;;17.00;51.09;101378.00;4937218;29;20032;-61
2024/02/14 07:27:53;;;;;;;3.80;1.90;;;;;;;17.05;51.35;101377.56;4919967;29;20035;-61
2024/02/14 07:30:19;;;;;;;2.78;1.60;;;;;;;17.11;50.33;101372.38;4935868;29;20047;-61
2024/02/14 07:32:44;;;;;;;6.53;1.75;;;;;;;17.16;51.52;101374.59;4936637;29;20047;-62
2024/02/14 07:35:10;;;;;;;6.25;1.70;;;;;;;17.19;51.30;101369.72;4935851;29;20031;-61
2024/02/14 07:37:36;;;;;;;1.95;1.42;;;;;;;17.21;51.67;101372.25;4935942;29;20035;-61
2024/02/14 07:40:01;;;;;;;3.92;1.45;;;;;;;17.20;50.22;101371.41;4936983;29;20042;-61
2024/02/14 07:42:27;;;;;;;2.88;1.20;;;;;;;17.25;51.32;101379.06;4936968;29;20035;-61
2024/02/14 07:44:53;;;;;;;4.03;1.67;;;;;;;17.32;50.85;101380.09;4935522;29;20063;-61
2024/02/14 07:47:19;;;;;;;3.15;1.60;;;;;;;17.37;50.97;101383.19;4935628;29;20062;-61
2024/02/14 07:49:44;;;;;;;2.65;1.88;;;;;;;17.38;51.20;101390.31;4935262;29;20038;-61
2024/02/14 07:52:09;;;;;;;2.22;1.25;;;;;;;17.41;50.88;101385.44;4936531;29;20423;-62
2024/02/14 07:54:35;;;;;;;3.50;1.35;;;;;;;17.42;50.60;101386.25;4935415;29;20128;-61
2024/02/14 07:57:01;;;;;;;6.20;1.60;;;;;;;17.50;50.67;101399.88;4935403;29;20066;-61
2024/02/14 07:59:27;;;;;;;2.60;1.33;;;;;;;17.52;50.99;101387.00;4934785;29;20051;-62
2024/02/14 08:01:52;;;;;;;2.00;1.25;;;;;;;17.61;50.07;101396.06;4935712;29;20036;-62
2024/02/14 08:04:18;;;;;;;1.70;1.27;;;;;;;17.65;50.59;101395.56;4935583;29;20094;-62
2024/02/14 08:06:46;;;;;;;5.20;1.50;;;;;;;17.72;51.22;101387.66;4936402;29;20043;-61
2024/02/14 08:09:11;;;;;;;3.35;1.40;;;;;;;17.75;50.38;101382.78;4919240;29;20530;-62
2024/02/14 08:11:36;;;;;;;1.90;1.80;;;;;;;17.80;50.47;101388.56;4919297;29;20040;-62
2024/02/14 08:14:02;;;;;;;3.70;1.48;;;;;;;17.85;50.71;101388.91;4936230;29;20059;-61
2024/02/14 08:16:28;;;;;;;4.50;1.92;;;;;;;17.91;50.08;101388.28;4919218;29;20043;-61
2024/02/14 08:18:58;;;;;;;3.38;1.10;;;;;;;17.94;50.14;101382.53;4934765;29;20415;-61
2024/02/14 08:21:25;;;;;;;3.55;1.58;;;;;;;18.00;50.93;101386.44;4919729;29;20139;-61
2024/02/14 08:23:51;;;;;;;3.00;1.35;;;;;;;18.06;50.82;101385.78;4934712;29;20032;-61
2024/02/14 08:26:17;;;;;;;3.03;1.27;;;;;;;18.11;50.18;101382.56;4936142;29;20119;-61
2024/02/14 08:28:42;;;;;;;1.30;1.20;;;;;;;18.12;50.12;101378.88;4934786;29;20171;-62
2024/02/14 08:31:11;;;;;;;2.47;1.35;;;;;;;18.13;50.10;101377.81;4934804;29;20035;-61
2024/02/14 08:33:37;;;;;;;2.65;1.17;;;;;;;18.20;50.09;101381.59;4935874;29;20047;-61
2024/02/14 08:36:03;;;;;;;3.22;1.00;;;;;;;18.32;49.43;101369.41;4934664;29;20032;-61
2024/02/14 08:38:29;;;;;;;3.30;1.17;;;;;;;18.34;49.70;101379.06;4934741;29;20044;-61
2024/02/14 08:40:54;;;;;;;3.83;1.23;;;;;;;18.44;49.98;101378.94;4934723;29;20047;-61
2024/02/14 08:43:20;;;;;;;2.67;1.60;;;;;;;18.47;49.80;101367.75;4934607;29;20042;-61
2024/02/14 08:45:45;;;;;;;3.15;1.30;;;;;;;18.62;49.65;101381.56;4935801;29;20118;-61
2024/02/14 08:48:10;;;;;;;2.83;1.20;;;;;;;18.73;49.31;101373.94;4935735;29;20036;-61
2024/02/14 08:50:36;;;;;;;5.93;2.40;;;;;;;18.95;48.80;101381.41;4935662;29;20032;-61
2024/02/14 08:53:01;;;;;;;1.75;1.15;;;;;;;18.95;49.27;101384.13;4919071;29;20036;-63
2024/02/14 08:55:27;;;;;;;9.27;1.23;;;;;;;19.08;49.12;101387.16;4935642;29;20054;-61
2024/02/14 08:57:52;;;;;;;1.02;0.85;;;;;;;19.18;49.53;101393.25;4934447;29;20418;-61
2024/02/14 09:00:21;;;;;;;2.22;1.50;;;;;;;19.28;49.13;101394.94;4934511;29;20035;-61
2024/02/14 09:02:47;;;;;;;4.22;1.55;;;;;;;19.37;49.31;101394.78;4919083;29;20130;-61
2024/02/14 09:05:12;;;;;;;4.18;1.52;;;;;;;19.61;49.30;101385.75;4934213;29;20482;-62
2024/02/14 09:07:38;;;;;;;3.75;1.30;;;;;;;19.87;48.67;101399.94;4933874;29;20036;-61
2024/02/14 09:10:05;;;;;;;4.07;1.17;;;;;;;19.86;48.41;101406.41;4934455;29;20124;-61
2024/02/14 09:12:31;;;;;;;4.20;1.23;;;;;;;19.88;49.01;101415.22;4938687;29;20032;-61
2024/02/14 09:14:57;;;;;;;4.53;1.10;;;;;;;19.85;48.15;101410.13;4938151;29;20031;-61
2024/02/14 09:17:22;;;;;;;2.78;1.20;;;;;;;19.92;48.52;101416.56;4938225;29;20102;-61
2024/02/14 09:19:48;;;;;;;3.20;1.10;;;;;;;19.86;48.70;101422.72;4939413;29;20140;-62
2024/02/14 09:22:18;;;;;;;4.05;1.25;;;;;;;19.76;48.65;101422.06;4938337;29;20036;-61
2024/02/14 09:24:43;;;;;;;3.47;1.10;;;;;;;19.66;48.77;101427.69;4938039;29;20039;-62
2024/02/14 09:27:09;;;;;;;8.38;1.52;;;;;;;19.61;48.85;101430.09;4938083;29;20047;-62
2024/02/14 09:29:36;;;;;;;2.72;1.25;;;;;;;19.55;48.44;101429.91;4938204;29;20039;-61
2024/02/14 09:32:03;;;;;;;3.45;1.05;;;;;;;19.49;49.15;101438.75;4937906;29;20078;-61
2024/02/14 09:34:29;;;;;;;8.25;1.77;;;;;;;19.48;48.34;101447.94;4921956;29;20595;-60
2024/02/14 09:36:56;;;;;;;4.07;1.15;;;;;;;19.38;48.72;101442.69;4939069;29;20135;-62
2024/02/14 09:39:21;;;;;;;1.58;1.30;;;;;;;19.35;48.83;101436.69;4937802;29;20534;-61
2024/02/14 09:41:52;;;;;;;1.58;1.35;;;;;;;19.30;48.53;101442.66;4937486;29;20044;-61
2024/02/14 09:44:17;;;;;;;2.85;1.17;;;;;;;19.27;49.28;101453.00;4937619;29;20040;-61
2024/02/14 09:46:43;;;;;;;2.92;1.33;;;;;;;19.21;48.89;101448.28;4939052;29;20099;-62
2024/02/14 09:49:09;;;;;;;2.00;0.88;;;;;;;19.13;48.77;101447.25;4938877;29;20043;-61
2024/02/14 09:51:34;;;;;;;6.00;1.83;;;;;;;19.11;48.99;101460.16;4937444;29;20504;-62
2024/02/14 09:54:03;;;;;;;1.45;1.13;;;;;;;19.06;48.97;101457.09;4937581;29;20036;-62
2024/02/14 09:56:29;;;;;;;2.45;1.00;;;;;;;19.02;49.55;101455.72;4938863;29;20507;-61
2024/02/14 09:59:00;;;;;;;5.68;1.15;;;;;;;18.93;49.59;101461.31;4938738;29;20071;-61
2024/02/14 10:01:26;;;;;;;1.30;1.10;;;;;;;18.88;49.47;101458.25;4937235;29;20040;-61
2024/02/14 10:03:53;;;;;;;2.88;1.13;;;;;;;18.83;49.55;101452.47;4938598;29;20399;-62
2024/02/14 10:06:21;;;;;;;1.60;0.93;;;;;;;18.80;49.78;101450.94;4937563;29;20032;-61
2024/02/14 10:08:50;;;;;;;1.83;1.05;;;;;;;18.79;49.90;101451.94;4937547;29;20099;-62
2024/02/14 10:11:21;;;;;;;1.95;1.02;;;;;;;18.80;50.00;101450.09;4953422;29;20116;-61
2024/02/14 10:13:47;;;;;;;3.20;0.98;;;;;;;18.81;49.35;101446.38;4952583;29;20040;-62
2024/02/14 10:16:14;;;;;;;5.32;1.30;;;;;;;18.89;49.59;101455.38;4937473;28;20462;-61
2024/02/14 10:18:39;;;;;;;1.50;1.08;;;;;;;18.87;49.85;101449.25;4937213;29;20495;-63
2024/02/14 10:21:05;;;;;;;2.15;0.98;;;;;;;18.90;49.99;101448.91;4937955;29;20070;-63
2024/02/14 10:23:30;;;;;;;1.95;1.02;;;;;;;18.89;50.34;101455.38;4920670;29;20407;-63
2024/02/14 10:25:56;;;;;;;2.20;1.10;;;;;;;18.84;50.05;101446.91;4936959;29;20483;-63
2024/02/14 10:28:22;;;;;;;1.70;0.90;;;;;;;18.83;50.53;101450.63;4938099;29;20476;-63
2024/02/14 10:30:51;;;;;;;0.93;0.90;;;;;;;18.86;49.72;101461.16;4937031;29;20070;-63
2024/02/14 10:33:17;;;;;;;2.65;0.75;;;;;;;18.83;50.08;101456.03;4952420;28;20048;-63
2024/02/14 10:35:43;;;;;;;4.45;1.33;;;;;;;18.83;50.42;101466.91;4921132;29;20560;-63
2024/02/14 10:38:09;;;;;;;1.10;1.00;;;;;;;18.87;50.11;101451.97;4921020;29;20055;-63
2024/02/14 10:40:36;;;;;;;1.17;0.80;;;;;;;18.86;49.88;101454.88;4936690;29;20030;-63
2024/02/14 10:43:01;;;;;;;1.05;0.85;;;;;;;18.79;50.38;101459.28;4936804;29;20020;-63
2024/02/14 10:45:27;;;;;;;1.33;0.90;;;;;;;18.79;50.33;101462.81;4936663;29;20027;-63
2024/02/14 10:47:57;;;;;;;1.88;0.82;;;;;;;18.86;50.60;101461.16;4952678;29;20023;-63
2024/02/14 10:50:24;;;;;;;1.33;0.88;;;;;;;18.95;49.98;101459.28;4936949;29;20036;-63
2024/02/14 10:52:50;;;;;;;1.75;0.90;;;;;;;18.99;50.11;101456.06;4936814;29;20046;-63
2024/02/14 10:55:16;;;;;;;2.20;0.70;;;;;;;19.01;49.92;101454.00;4936911;29;20114;-63
2024/02/14 10:57:46;;;;;;;1.02;0.95;;;;;;;19.02;50.24;101453.00;4936488;29;20032;-63
2024/02/14 11:00:14;;;;;;;1.85;1.23;;;;;;;19.06;50.50;101467.09;4936853;29;20032;-63
2024/02/14 11:02:40;;;;;;;2.10;0.57;;;;;;;19.08;50.30;101465.91;4923492;29;20039;-63
2024/02/14 11:05:13;;;;;;;1.13;0.75;;;;;;;19.08;50.44;101475.94;4924206;29;20050;-65
2024/02/14 11:07:44;;;;;;;0.90;0.60;;;;;;;19.07;50.81;101479.66;4939923;29;20476;-64
2024/02/14 11:10:13;;;;;;;1.83;0.85;;;;;;;19.06;50.30;101472.53;4937738;29;20419;-63
2024/02/14 11:12:40;;;;;;;3.33;0.73;;;;;;;19.05;50.85;101471.69;4937746;29;20090;-63
2024/02/14 11:15:35;;;;;;;0.88;0.70;;;;;;;19.00;50.70;101474.06;4936093;29;20408;-63
2024/02/14 11:18:05;;;;;;;1.48;1.13;;;;;;;18.98;51.03;101481.50;4950535;29;20045;-63